Terminal Aerodrome Forecast
Issued by NWS

Home | Current Version | Previous Version | Text Only | Print | Product List | Glossary On
Versions: 1 2 3 4 5 6 7 8 9 10 11 12 13
000
FTUS46 KSTO 211100
TAFSMF
TAF
KSMF 211120Z 2112/2212 14006KT P6SM VCSH SCT120 BKN200
     FM211800 20009KT P6SM SCT200
     FM220700 15007KT P6SM SKC=

USA.gov is the U.S. government's official web portal to all federal, state and local government web resources and services.